sensor_id;sensor_type;location;lat;lon;timestamp;temperature;humidity
2623;DHT22;1321;48.690;9.022;2022-12-05T00:02:01;3.50;1.00
2623;DHT22;1321;48.690;9.022;2022-12-05T00:04:30;3.50;1.00
2623;DHT22;1321;48.690;9.022;2022-12-05T00:06:58;3.50;1.00
2623;DHT22;1321;48.690;9.022;2022-12-05T00:09:26;3.50;1.00
2623;DHT22;1321;48.690;9.022;2022-12-05T00:11:55;3.40;1.00
2623;DHT22;1321;48.690;9.022;2022-12-05T00:14:25;3.60;1.00
2623;DHT22;1321;48.690;9.022;2022-12-05T00:16:53;3.50;1.00
2623;DHT22;1321;48.690;9.022;2022-12-05T00:19:21;3.60;1.00
2623;DHT22;1321;48.690;9.022;2022-12-05T00:21:50;3.70;1.00
2623;DHT22;1321;48.690;9.022;2022-12-05T00:24:18;3.70;99.90
2623;DHT22;1321;48.690;9.022;2022-12-05T00:26:47;3.60;1.00
2623;DHT22;1321;48.690;9.022;2022-12-05T00:29:15;3.50;1.00
2623;DHT22;1321;48.690;9.022;2022-12-05T00:31:45;3.60;1.00
2623;DHT22;1321;48.690;9.022;2022-12-05T00:34:13;3.60;1.00
2623;DHT22;1321;48.690;9.022;2022-12-05T00:36:42;3.60;1.00
2623;DHT22;1321;48.690;9.022;2022-12-05T00:39:11;3.70;1.00
2623;DHT22;1321;48.690;9.022;2022-12-05T00:41:40;3.60;1.00
2623;DHT22;1321;48.690;9.022;2022-12-05T00:44:10;3.50;1.00
2623;DHT22;1321;48.690;9.022;2022-12-05T00:46:39;3.60;1.00
2623;DHT22;1321;48.690;9.022;2022-12-05T00:49:10;3.60;1.00
2623;DHT22;1321;48.690;9.022;2022-12-05T00:51:40;3.70;1.00
2623;DHT22;1321;48.690;9.022;2022-12-05T00:54:10;3.80;99.90
2623;DHT22;1321;48.690;9.022;2022-12-05T00:56:39;3.70;99.90
2623;DHT22;1321;48.690;9.022;2022-12-05T00:59:08;3.60;99.90
2623;DHT22;1321;48.690;9.022;2022-12-05T01:01:40;3.70;99.90
2623;DHT22;1321;48.690;9.022;2022-12-05T01:04:12;3.60;99.90
2623;DHT22;1321;48.690;9.022;2022-12-05T01:06:41;3.70;99.90
2623;DHT22;1321;48.690;9.022;2022-12-05T01:09:12;3.80;99.90
2623;DHT22;1321;48.690;9.022;2022-12-05T01:11:41;3.70;99.90
2623;DHT22;1321;48.690;9.022;2022-12-05T01:14:11;3.60;99.90
2623;DHT22;1321;48.690;9.022;2022-12-05T01:16:41;3.70;99.90
2623;DHT22;1321;48.690;9.022;2022-12-05T01:19:13;3.60;99.90
2623;DHT22;1321;48.690;9.022;2022-12-05T01:21:42;3.60;1.00
2623;DHT22;1321;48.690;9.022;2022-12-05T01:24:11;3.60;1.00
2623;DHT22;1321;48.690;9.022;2022-12-05T01:26:40;3.60;1.00
2623;DHT22;1321;48.690;9.022;2022-12-05T01:29:09;3.60;1.00
2623;DHT22;1321;48.690;9.022;2022-12-05T01:31:37;3.60;1.00
2623;DHT22;1321;48.690;9.022;2022-12-05T01:34:08;3.60;1.00
2623;DHT22;1321;48.690;9.022;2022-12-05T01:36:39;3.50;1.00
2623;DHT22;1321;48.690;9.022;2022-12-05T01:39:09;3.50;1.00
2623;DHT22;1321;48.690;9.022;2022-12-05T01:41:39;3.50;1.00
2623;DHT22;1321;48.690;9.022;2022-12-05T01:47:15;3.40;1.00
2623;DHT22;1321;48.690;9.022;2022-12-05T01:49:44;3.40;1.00
2623;DHT22;1321;48.690;9.022;2022-12-05T01:52:17;3.30;1.00
2623;DHT22;1321;48.690;9.022;2022-12-05T01:54:47;3.40;1.00
2623;DHT22;1321;48.690;9.022;2022-12-05T01:57:17;3.50;1.00
2623;DHT22;1321;48.690;9.022;2022-12-05T01:59:49;3.40;1.00
2623;DHT22;1321;48.690;9.022;2022-12-05T02:02:18;3.50;1.00
2623;DHT22;1321;48.690;9.022;2022-12-05T02:04:50;3.40;1.00
2623;DHT22;1321;48.690;9.022;2022-12-05T02:07:26;3.30;1.00
2623;DHT22;1321;48.690;9.022;2022-12-05T02:09:54;3.40;1.00
2623;DHT22;1321;48.690;9.022;2022-12-05T02:12:23;3.50;1.00
2623;DHT22;1321;48.690;9.022;2022-12-05T02:15:02;3.40;1.00
2623;DHT22;1321;48.690;9.022;2022-12-05T02:17:40;3.60;1.00
2623;DHT22;1321;48.690;9.022;2022-12-05T02:26:27;3.40;1.00
2623;DHT22;1321;48.690;9.022;2022-12-05T02:29:40;3.50;1.00
2623;DHT22;1321;48.690;9.022;2022-12-05T02:32:12;3.40;1.00
2623;DHT22;1321;48.690;9.022;2022-12-05T02:34:46;3.60;1.00
2623;DHT22;1321;48.690;9.022;2022-12-05T02:37:27;3.50;1.00
2623;DHT22;1321;48.690;9.022;2022-12-05T02:40:02;3.50;1.00
2623;DHT22;1321;48.690;9.022;2022-12-05T02:42:36;3.50;1.00
2623;DHT22;1321;48.690;9.022;2022-12-05T02:45:12;3.40;1.00
2623;DHT22;1321;48.690;9.022;2022-12-05T02:47:44;3.50;1.00
2623;DHT22;1321;48.690;9.022;2022-12-05T02:50:16;3.50;1.00
2623;DHT22;1321;48.690;9.022;2022-12-05T02:52:46;3.50;1.00
2623;DHT22;1321;48.690;9.022;2022-12-05T02:55:17;3.60;1.00
2623;DHT22;1321;48.690;9.022;2022-12-05T02:57:51;3.50;1.00
2623;DHT22;1321;48.690;9.022;2022-12-05T03:00:21;3.60;1.00
2623;DHT22;1321;48.690;9.022;2022-12-05T03:02:52;3.60;1.00
2623;DHT22;1321;48.690;9.022;2022-12-05T03:05:30;3.60;1.00
2623;DHT22;1321;48.690;9.022;2022-12-05T03:08:01;3.60;1.00
2623;DHT22;1321;48.690;9.022;2022-12-05T03:10:32;3.60;1.00
2623;DHT22;1321;48.690;9.022;2022-12-05T03:13:04;3.60;1.00
2623;DHT22;1321;48.690;9.022;2022-12-05T03:15:38;3.60;1.00
2623;DHT22;1321;48.690;9.022;2022-12-05T03:18:12;3.80;1.00
2623;DHT22;1321;48.690;9.022;2022-12-05T03:20:45;3.70;1.00
2623;DHT22;1321;48.690;9.022;2022-12-05T03:23:18;3.70;1.00
2623;DHT22;1321;48.690;9.022;2022-12-05T03:25:52;3.70;1.00
2623;DHT22;1321;48.690;9.022;2022-12-05T03:28:27;3.80;1.00
2623;DHT22;1321;48.690;9.022;2022-12-05T03:31:01;3.90;1.00
2623;DHT22;1321;48.690;9.022;2022-12-05T03:33:37;3.90;1.00
2623;DHT22;1321;48.690;9.022;2022-12-05T03:36:12;3.70;1.00
2623;DHT22;1321;48.690;9.022;2022-12-05T03:38:46;3.70;1.00
2623;DHT22;1321;48.690;9.022;2022-12-05T03:41:21;3.70;1.00
2623;DHT22;1321;48.690;9.022;2022-12-05T03:43:54;3.70;1.00
2623;DHT22;1321;48.690;9.022;2022-12-05T03:46:27;3.70;1.00
2623;DHT22;1321;48.690;9.022;2022-12-05T03:49:01;3.80;1.00
2623;DHT22;1321;48.690;9.022;2022-12-05T03:51:34;3.70;1.00
2623;DHT22;1321;48.690;9.022;2022-12-05T03:54:08;3.90;1.00
2623;DHT22;1321;48.690;9.022;2022-12-05T03:56:42;3.90;1.00
2623;DHT22;1321;48.690;9.022;2022-12-05T03:59:15;3.90;1.00
2623;DHT22;1321;48.690;9.022;2022-12-05T04:01:47;3.90;1.00
2623;DHT22;1321;48.690;9.022;2022-12-05T04:04:25;3.80;1.00
2623;DHT22;1321;48.690;9.022;2022-12-05T04:06:55;3.90;1.00
2623;DHT22;1321;48.690;9.022;2022-12-05T04:09:28;3.80;1.00
2623;DHT22;1321;48.690;9.022;2022-12-05T04:12:01;4.00;1.00
2623;DHT22;1321;48.690;9.022;2022-12-05T04:14:33;3.80;1.00
2623;DHT22;1321;48.690;9.022;2022-12-05T04:17:05;3.80;1.00
2623;DHT22;1321;48.690;9.022;2022-12-05T04:19:39;4.00;1.00
2623;DHT22;1321;48.690;9.022;2022-12-05T04:22:26;3.90;1.00
2623;DHT22;1321;48.690;9.022;2022-12-05T04:24:56;3.90;1.00
2623;DHT22;1321;48.690;9.022;2022-12-05T04:27:49;3.80;1.00
2623;DHT22;1321;48.690;9.022;2022-12-05T04:30:21;3.90;1.00
2623;DHT22;1321;48.690;9.022;2022-12-05T04:32:55;3.90;1.00
2623;DHT22;1321;48.690;9.022;2022-12-05T04:35:29;3.80;1.00
2623;DHT22;1321;48.690;9.022;2022-12-05T04:38:02;3.90;1.00
2623;DHT22;1321;48.690;9.022;2022-12-05T04:40:36;3.90;1.00
2623;DHT22;1321;48.690;9.022;2022-12-05T04:43:06;3.80;1.00
2623;DHT22;1321;48.690;9.022;2022-12-05T04:45:36;3.80;1.00
2623;DHT22;1321;48.690;9.022;2022-12-05T04:48:10;3.90;1.00
2623;DHT22;1321;48.690;9.022;2022-12-05T04:50:39;3.80;1.00
2623;DHT22;1321;48.690;9.022;2022-12-05T04:53:10;3.70;1.00
2623;DHT22;1321;48.690;9.022;2022-12-05T04:55:42;3.70;1.00
2623;DHT22;1321;48.690;9.022;2022-12-05T04:58:14;3.70;1.00
2623;DHT22;1321;48.690;9.022;2022-12-05T05:00:48;3.80;1.00
2623;DHT22;1321;48.690;9.022;2022-12-05T05:03:23;3.70;1.00
2623;DHT22;1321;48.690;9.022;2022-12-05T05:05:54;3.70;1.00
2623;DHT22;1321;48.690;9.022;2022-12-05T05:08:26;3.80;1.00
2623;DHT22;1321;48.690;9.022;2022-12-05T05:11:03;3.70;1.00
2623;DHT22;1321;48.690;9.022;2022-12-05T05:13:33;3.70;1.00
2623;DHT22;1321;48.690;9.022;2022-12-05T05:16:02;3.70;1.00
2623;DHT22;1321;48.690;9.022;2022-12-05T05:18:32;3.70;1.00
2623;DHT22;1321;48.690;9.022;2022-12-05T05:21:00;3.70;1.00
2623;DHT22;1321;48.690;9.022;2022-12-05T05:23:30;3.80;1.00
2623;DHT22;1321;48.690;9.022;2022-12-05T05:25:58;3.80;1.00
2623;DHT22;1321;48.690;9.022;2022-12-05T05:28:26;3.70;1.00
2623;DHT22;1321;48.690;9.022;2022-12-05T05:30:55;3.70;1.00
2623;DHT22;1321;48.690;9.022;2022-12-05T05:33:28;3.70;1.00
2623;DHT22;1321;48.690;9.022;2022-12-05T05:36:03;3.70;1.00
2623;DHT22;1321;48.690;9.022;2022-12-05T05:38:34;3.80;1.00
2623;DHT22;1321;48.690;9.022;2022-12-05T05:41:03;3.90;1.00
2623;DHT22;1321;48.690;9.022;2022-12-05T05:43:32;3.90;1.00
2623;DHT22;1321;48.690;9.022;2022-12-05T05:46:02;4.00;1.00
2623;DHT22;1321;48.690;9.022;2022-12-05T05:48:31;4.00;1.00
2623;DHT22;1321;48.690;9.022;2022-12-05T05:50:59;4.00;1.00
2623;DHT22;1321;48.690;9.022;2022-12-05T05:53:29;4.10;1.00
2623;DHT22;1321;48.690;9.022;2022-12-05T05:56:01;4.10;1.00
2623;DHT22;1321;48.690;9.022;2022-12-05T05:58:29;4.20;1.00
2623;DHT22;1321;48.690;9.022;2022-12-05T06:01:02;4.20;1.00
2623;DHT22;1321;48.690;9.022;2022-12-05T06:03:30;4.10;1.00
2623;DHT22;1321;48.690;9.022;2022-12-05T06:06:00;4.10;1.00
2623;DHT22;1321;48.690;9.022;2022-12-05T06:08:31;4.10;1.00
2623;DHT22;1321;48.690;9.022;2022-12-05T06:11:04;4.00;1.00
2623;DHT22;1321;48.690;9.022;2022-12-05T06:13:34;4.10;1.00
2623;DHT22;1321;48.690;9.022;2022-12-05T06:16:04;4.10;1.00
2623;DHT22;1321;48.690;9.022;2022-12-05T06:18:33;4.10;1.00
2623;DHT22;1321;48.690;9.022;2022-12-05T06:21:02;4.10;1.00
2623;DHT22;1321;48.690;9.022;2022-12-05T06:23:33;4.10;1.00
2623;DHT22;1321;48.690;9.022;2022-12-05T06:26:03;4.20;1.00
2623;DHT22;1321;48.690;9.022;2022-12-05T06:28:32;4.20;1.00
2623;DHT22;1321;48.690;9.022;2022-12-05T06:31:06;4.10;1.00
2623;DHT22;1321;48.690;9.022;2022-12-05T06:33:34;4.20;1.00
2623;DHT22;1321;48.690;9.022;2022-12-05T06:36:04;4.20;1.00
2623;DHT22;1321;48.690;9.022;2022-12-05T06:38:34;4.20;1.00
2623;DHT22;1321;48.690;9.022;2022-12-05T06:41:10;4.20;1.00
2623;DHT22;1321;48.690;9.022;2022-12-05T06:43:38;4.20;1.00
2623;DHT22;1321;48.690;9.022;2022-12-05T06:46:07;4.20;1.00
2623;DHT22;1321;48.690;9.022;2022-12-05T06:48:36;4.10;1.00
2623;DHT22;1321;48.690;9.022;2022-12-05T06:51:07;4.10;1.00
2623;DHT22;1321;48.690;9.022;2022-12-05T06:53:37;4.10;1.00
2623;DHT22;1321;48.690;9.022;2022-12-05T06:56:08;4.10;1.00
2623;DHT22;1321;48.690;9.022;2022-12-05T06:58:38;4.10;1.00
2623;DHT22;1321;48.690;9.022;2022-12-05T07:01:10;4.20;1.00
2623;DHT22;1321;48.690;9.022;2022-12-05T07:03:57;4.20;1.00
2623;DHT22;1321;48.690;9.022;2022-12-05T07:06:26;4.10;1.00
2623;DHT22;1321;48.690;9.022;2022-12-05T07:08:56;4.10;1.00
2623;DHT22;1321;48.690;9.022;2022-12-05T07:11:25;4.20;1.00
2623;DHT22;1321;48.690;9.022;2022-12-05T07:13:54;4.20;1.00
2623;DHT22;1321;48.690;9.022;2022-12-05T07:16:22;4.20;1.00
2623;DHT22;1321;48.690;9.022;2022-12-05T07:18:51;4.30;1.00
2623;DHT22;1321;48.690;9.022;2022-12-05T07:21:19;4.40;1.00
2623;DHT22;1321;48.690;9.022;2022-12-05T07:23:48;4.40;1.00
2623;DHT22;1321;48.690;9.022;2022-12-05T07:26:20;4.60;1.00
2623;DHT22;1321;48.690;9.022;2022-12-05T07:28:49;4.50;1.00
2623;DHT22;1321;48.690;9.022;2022-12-05T07:31:20;4.50;1.00
2623;DHT22;1321;48.690;9.022;2022-12-05T07:33:49;4.50;1.00
2623;DHT22;1321;48.690;9.022;2022-12-05T07:36:20;4.50;1.00
2623;DHT22;1321;48.690;9.022;2022-12-05T07:38:54;4.40;1.00
2623;DHT22;1321;48.690;9.022;2022-12-05T07:41:25;4.50;1.00
2623;DHT22;1321;48.690;9.022;2022-12-05T07:43:55;4.50;1.00
2623;DHT22;1321;48.690;9.022;2022-12-05T07:46:26;4.60;1.00
2623;DHT22;1321;48.690;9.022;2022-12-05T07:48:55;4.60;1.00
2623;DHT22;1321;48.690;9.022;2022-12-05T07:51:23;4.60;1.00
2623;DHT22;1321;48.690;9.022;2022-12-05T07:53:52;4.70;1.00
2623;DHT22;1321;48.690;9.022;2022-12-05T07:56:20;4.60;1.00
2623;DHT22;1321;48.690;9.022;2022-12-05T07:58:51;4.70;1.00
2623;DHT22;1321;48.690;9.022;2022-12-05T08:01:22;4.70;1.00
2623;DHT22;1321;48.690;9.022;2022-12-05T08:03:52;4.70;1.00
2623;DHT22;1321;48.690;9.022;2022-12-05T08:06:23;4.70;1.00
2623;DHT22;1321;48.690;9.022;2022-12-05T08:08:52;4.70;1.00
2623;DHT22;1321;48.690;9.022;2022-12-05T08:11:22;4.80;1.00
2623;DHT22;1321;48.690;9.022;2022-12-05T08:13:53;4.80;1.00
2623;DHT22;1321;48.690;9.022;2022-12-05T08:16:24;4.90;1.00
2623;DHT22;1321;48.690;9.022;2022-12-05T08:18:53;5.00;1.00
2623;DHT22;1321;48.690;9.022;2022-12-05T08:21:23;5.00;1.00
2623;DHT22;1321;48.690;9.022;2022-12-05T08:23:52;4.90;1.00
2623;DHT22;1321;48.690;9.022;2022-12-05T08:26:22;4.90;1.00
2623;DHT22;1321;48.690;9.022;2022-12-05T08:28:54;4.80;1.00
2623;DHT22;1321;48.690;9.022;2022-12-05T08:31:23;4.90;1.00
2623;DHT22;1321;48.690;9.022;2022-12-05T08:33:56;4.80;1.00
2623;DHT22;1321;48.690;9.022;2022-12-05T08:36:26;4.90;1.00
2623;DHT22;1321;48.690;9.022;2022-12-05T08:38:56;4.90;1.00
2623;DHT22;1321;48.690;9.022;2022-12-05T08:41:25;5.00;1.00
2623;DHT22;1321;48.690;9.022;2022-12-05T08:43:58;4.90;1.00
2623;DHT22;1321;48.690;9.022;2022-12-05T08:46:27;4.90;1.00
2623;DHT22;1321;48.690;9.022;2022-12-05T08:48:56;4.90;1.00
2623;DHT22;1321;48.690;9.022;2022-12-05T08:51:24;4.90;1.00
2623;DHT22;1321;48.690;9.022;2022-12-05T08:53:52;5.00;1.00
2623;DHT22;1321;48.690;9.022;2022-12-05T08:56:22;5.00;1.00
2623;DHT22;1321;48.690;9.022;2022-12-05T08:58:53;5.10;1.00
2623;DHT22;1321;48.690;9.022;2022-12-05T09:01:33;5.20;1.00
2623;DHT22;1321;48.690;9.022;2022-12-05T09:04:07;5.20;1.00
2623;DHT22;1321;48.690;9.022;2022-12-05T09:06:36;5.30;1.00
2623;DHT22;1321;48.690;9.022;2022-12-05T09:09:07;5.40;1.00
2623;DHT22;1321;48.690;9.022;2022-12-05T09:11:39;5.40;1.00
2623;DHT22;1321;48.690;9.022;2022-12-05T09:14:12;5.50;1.00
2623;DHT22;1321;48.690;9.022;2022-12-05T09:16:43;5.50;99.90
2623;DHT22;1321;48.690;9.022;2022-12-05T09:19:13;5.30;99.90
2623;DHT22;1321;48.690;9.022;2022-12-05T09:21:42;5.30;99.90
2623;DHT22;1321;48.690;9.022;2022-12-05T09:24:11;5.20;1.00
2623;DHT22;1321;48.690;9.022;2022-12-05T09:26:40;5.30;1.00
2623;DHT22;1321;48.690;9.022;2022-12-05T09:29:10;5.30;1.00
2623;DHT22;1321;48.690;9.022;2022-12-05T09:31:45;5.30;1.00
2623;DHT22;1321;48.690;9.022;2022-12-05T09:34:15;5.30;99.90
2623;DHT22;1321;48.690;9.022;2022-12-05T09:36:44;5.40;1.00
2623;DHT22;1321;48.690;9.022;2022-12-05T09:39:15;5.40;1.00
2623;DHT22;1321;48.690;9.022;2022-12-05T09:41:56;5.50;1.00
2623;DHT22;1321;48.690;9.022;2022-12-05T09:44:43;5.50;1.00
2623;DHT22;1321;48.690;9.022;2022-12-05T09:47:21;5.50;1.00
2623;DHT22;1321;48.690;9.022;2022-12-05T09:49:54;5.50;1.00
2623;DHT22;1321;48.690;9.022;2022-12-05T09:52:27;5.50;99.90
2623;DHT22;1321;48.690;9.022;2022-12-05T09:54:56;5.50;99.90
2623;DHT22;1321;48.690;9.022;2022-12-05T09:57:33;5.60;99.90
2623;DHT22;1321;48.690;9.022;2022-12-05T10:00:04;5.60;99.90
2623;DHT22;1321;48.690;9.022;2022-12-05T10:02:40;5.60;1.40
2623;DHT22;1321;48.690;9.022;2022-12-05T10:05:17;5.70;1.00
2623;DHT22;1321;48.690;9.022;2022-12-05T10:07:53;5.70;9.00
2623;DHT22;1321;48.690;9.022;2022-12-05T10:10:28;5.70;87.70
2623;DHT22;1321;48.690;9.022;2022-12-05T10:13:28;5.70;99.90
2623;DHT22;1321;48.690;9.022;2022-12-05T10:16:02;5.70;99.90
2623;DHT22;1321;48.690;9.022;2022-12-05T10:18:38;5.70;65.70
2623;DHT22;1321;48.690;9.022;2022-12-05T10:21:13;5.70;99.90
2623;DHT22;1321;48.690;9.022;2022-12-05T10:23:50;5.80;11.50
2623;DHT22;1321;48.690;9.022;2022-12-05T10:26:27;5.80;99.90
2623;DHT22;1321;48.690;9.022;2022-12-05T10:29:05;5.90;99.90
2623;DHT22;1321;48.690;9.022;2022-12-05T10:31:37;6.00;43.80
2623;DHT22;1321;48.690;9.022;2022-12-05T10:34:14;6.10;1.00
2623;DHT22;1321;48.690;9.022;2022-12-05T10:36:51;6.20;99.90
2623;DHT22;1321;48.690;9.022;2022-12-05T10:39:21;6.20;1.00
2623;DHT22;1321;48.690;9.022;2022-12-05T10:41:50;6.20;99.90
2623;DHT22;1321;48.690;9.022;2022-12-05T10:44:18;6.30;99.90
2623;DHT22;1321;48.690;9.022;2022-12-05T10:46:47;6.20;99.90
2623;DHT22;1321;48.690;9.022;2022-12-05T10:49:18;6.20;1.00
2623;DHT22;1321;48.690;9.022;2022-12-05T10:51:48;6.20;99.90
2623;DHT22;1321;48.690;9.022;2022-12-05T10:54:21;6.20;99.90
2623;DHT22;1321;48.690;9.022;2022-12-05T10:56:51;6.20;1.00
2623;DHT22;1321;48.690;9.022;2022-12-05T10:59:21;6.20;99.90
2623;DHT22;1321;48.690;9.022;2022-12-05T11:01:52;6.20;1.00
2623;DHT22;1321;48.690;9.022;2022-12-05T11:04:26;6.10;99.90
2623;DHT22;1321;48.690;9.022;2022-12-05T11:06:58;6.10;99.90
2623;DHT22;1321;48.690;9.022;2022-12-05T11:09:28;6.10;99.90
2623;DHT22;1321;48.690;9.022;2022-12-05T11:12:20;6.10;31.90
2623;DHT22;1321;48.690;9.022;2022-12-05T11:14:58;6.10;99.90
2623;DHT22;1321;48.690;9.022;2022-12-05T11:17:31;6.20;1.00
2623;DHT22;1321;48.690;9.022;2022-12-05T11:20:11;6.20;1.00
2623;DHT22;1321;48.690;9.022;2022-12-05T11:22:53;6.50;99.90
2623;DHT22;1321;48.690;9.022;2022-12-05T11:25:31;6.60;1.00
2623;DHT22;1321;48.690;9.022;2022-12-05T11:28:26;6.90;1.00
2623;DHT22;1321;48.690;9.022;2022-12-05T11:30:57;7.10;99.90
2623;DHT22;1321;48.690;9.022;2022-12-05T11:33:27;7.20;1.00
2623;DHT22;1321;48.690;9.022;2022-12-05T11:36:02;7.20;1.00
2623;DHT22;1321;48.690;9.022;2022-12-05T11:38:31;7.20;1.00
2623;DHT22;1321;48.690;9.022;2022-12-05T11:41:15;7.10;99.90
2623;DHT22;1321;48.690;9.022;2022-12-05T11:44:12;6.80;99.90
2623;DHT22;1321;48.690;9.022;2022-12-05T11:46:49;6.80;1.00
2623;DHT22;1321;48.690;9.022;2022-12-05T11:49:43;6.80;99.90
2623;DHT22;1321;48.690;9.022;2022-12-05T11:52:27;6.70;99.90
2623;DHT22;1321;48.690;9.022;2022-12-05T11:55:14;6.70;99.90
2623;DHT22;1321;48.690;9.022;2022-12-05T11:58:11;6.80;99.90
2623;DHT22;1321;48.690;9.022;2022-12-05T12:00:50;6.80;68.10
2623;DHT22;1321;48.690;9.022;2022-12-05T12:03:46;6.90;66.10
2623;DHT22;1321;48.690;9.022;2022-12-05T12:06:24;6.80;81.10
2623;DHT22;1321;48.690;9.022;2022-12-05T12:09:06;6.80;99.90
2623;DHT22;1321;48.690;9.022;2022-12-05T12:11:43;6.80;99.90
2623;DHT22;1321;48.690;9.022;2022-12-05T12:14:18;6.80;99.90
2623;DHT22;1321;48.690;9.022;2022-12-05T12:16:56;6.90;1.00
2623;DHT22;1321;48.690;9.022;2022-12-05T12:19:38;7.00;1.00
2623;DHT22;1321;48.690;9.022;2022-12-05T12:22:25;7.10;99.90
2623;DHT22;1321;48.690;9.022;2022-12-05T12:25:08;7.20;99.90
2623;DHT22;1321;48.690;9.022;2022-12-05T12:27:51;7.30;1.00
2623;DHT22;1321;48.690;9.022;2022-12-05T12:30:23;7.30;1.00
2623;DHT22;1321;48.690;9.022;2022-12-05T12:33:03;7.40;99.90
2623;DHT22;1321;48.690;9.022;2022-12-05T12:35:38;7.30;99.90
2623;DHT22;1321;48.690;9.022;2022-12-05T12:38:36;7.30;99.90
2623;DHT22;1321;48.690;9.022;2022-12-05T12:41:16;7.30;99.90
2623;DHT22;1321;48.690;9.022;2022-12-05T12:43:54;7.40;99.90
2623;DHT22;1321;48.690;9.022;2022-12-05T12:46:36;7.30;99.90
2623;DHT22;1321;48.690;9.022;2022-12-05T12:49:21;7.30;99.90
2623;DHT22;1321;48.690;9.022;2022-12-05T12:51:57;7.20;99.90
2623;DHT22;1321;48.690;9.022;2022-12-05T12:54:46;7.10;99.90
2623;DHT22;1321;48.690;9.022;2022-12-05T12:57:45;7.00;99.90
2623;DHT22;1321;48.690;9.022;2022-12-05T13:00:22;7.00;1.00
2623;DHT22;1321;48.690;9.022;2022-12-05T13:02:57;7.00;1.00
2623;DHT22;1321;48.690;9.022;2022-12-05T13:05:33;6.80;99.90
2623;DHT22;1321;48.690;9.022;2022-12-05T13:08:05;6.90;99.90
2623;DHT22;1321;48.690;9.022;2022-12-05T13:10:37;6.90;99.90
2623;DHT22;1321;48.690;9.022;2022-12-05T13:13:13;6.90;99.90
2623;DHT22;1321;48.690;9.022;2022-12-05T13:15:45;6.90;1.00
2623;DHT22;1321;48.690;9.022;2022-12-05T13:18:17;6.90;99.90
2623;DHT22;1321;48.690;9.022;2022-12-05T13:20:47;6.90;99.90
2623;DHT22;1321;48.690;9.022;2022-12-05T13:23:21;6.90;99.90
2623;DHT22;1321;48.690;9.022;2022-12-05T13:25:51;6.90;99.90
2623;DHT22;1321;48.690;9.022;2022-12-05T13:28:27;6.90;99.90
2623;DHT22;1321;48.690;9.022;2022-12-05T13:30:57;6.90;99.90
2623;DHT22;1321;48.690;9.022;2022-12-05T13:33:31;6.90;99.90
2623;DHT22;1321;48.690;9.022;2022-12-05T13:36:06;6.90;35.10
2623;DHT22;1321;48.690;9.022;2022-12-05T13:39:01;6.90;99.90
2623;DHT22;1321;48.690;9.022;2022-12-05T13:41:49;6.90;99.90
2623;DHT22;1321;48.690;9.022;2022-12-05T13:44:40;6.80;1.00
2623;DHT22;1321;48.690;9.022;2022-12-05T13:47:26;6.80;43.50
2623;DHT22;1321;48.690;9.022;2022-12-05T13:50:00;6.80;60.50
2623;DHT22;1321;48.690;9.022;2022-12-05T13:52:31;6.80;99.90
2623;DHT22;1321;48.690;9.022;2022-12-05T13:55:17;6.80;99.90
2623;DHT22;1321;48.690;9.022;2022-12-05T13:57:52;6.80;99.90
2623;DHT22;1321;48.690;9.022;2022-12-05T14:00:28;6.80;99.90
2623;DHT22;1321;48.690;9.022;2022-12-05T14:03:05;6.80;99.90
2623;DHT22;1321;48.690;9.022;2022-12-05T14:05:45;6.80;99.90
2623;DHT22;1321;48.690;9.022;2022-12-05T14:11:30;6.80;99.90
2623;DHT22;1321;48.690;9.022;2022-12-05T14:13:58;6.80;45.50
2623;DHT22;1321;48.690;9.022;2022-12-05T14:16:44;6.80;95.50
2623;DHT22;1321;48.690;9.022;2022-12-05T14:19:40;6.80;1.00
2623;DHT22;1321;48.690;9.022;2022-12-05T14:22:25;6.80;1.00
2623;DHT22;1321;48.690;9.022;2022-12-05T14:25:05;6.80;99.90
2623;DHT22;1321;48.690;9.022;2022-12-05T14:27:44;6.80;99.90
2623;DHT22;1321;48.690;9.022;2022-12-05T14:30:21;6.80;99.90
2623;DHT22;1321;48.690;9.022;2022-12-05T14:32:53;6.80;99.90
2623;DHT22;1321;48.690;9.022;2022-12-05T14:35:26;6.70;99.90
2623;DHT22;1321;48.690;9.022;2022-12-05T14:37:57;6.70;99.90
2623;DHT22;1321;48.690;9.022;2022-12-05T14:40:30;6.70;1.00
2623;DHT22;1321;48.690;9.022;2022-12-05T14:43:01;6.80;99.90
2623;DHT22;1321;48.690;9.022;2022-12-05T14:45:33;6.70;99.90
2623;DHT22;1321;48.690;9.022;2022-12-05T14:48:05;6.70;99.90
2623;DHT22;1321;48.690;9.022;2022-12-05T14:50:50;6.70;99.90
2623;DHT22;1321;48.690;9.022;2022-12-05T14:56:16;6.70;1.00
2623;DHT22;1321;48.690;9.022;2022-12-05T14:58:49;6.70;1.00
2623;DHT22;1321;48.690;9.022;2022-12-05T15:01:21;6.70;1.00
2623;DHT22;1321;48.690;9.022;2022-12-05T15:04:07;6.80;1.00
2623;DHT22;1321;48.690;9.022;2022-12-05T15:06:45;6.70;1.00
2623;DHT22;1321;48.690;9.022;2022-12-05T15:09:34;6.60;1.00
2623;DHT22;1321;48.690;9.022;2022-12-05T15:12:09;6.60;1.00
2623;DHT22;1321;48.690;9.022;2022-12-05T15:14:51;6.50;35.50
2623;DHT22;1321;48.690;9.022;2022-12-05T15:17:24;6.60;1.00
2623;DHT22;1321;48.690;9.022;2022-12-05T15:20:00;6.50;1.00
2623;DHT22;1321;48.690;9.022;2022-12-05T15:22:33;6.50;1.00
2623;DHT22;1321;48.690;9.022;2022-12-05T15:25:26;6.50;1.00
2623;DHT22;1321;48.690;9.022;2022-12-05T15:27:59;6.50;1.00
2623;DHT22;1321;48.690;9.022;2022-12-05T15:30:28;6.40;1.00
2623;DHT22;1321;48.690;9.022;2022-12-05T15:32:58;6.50;1.00
2623;DHT22;1321;48.690;9.022;2022-12-05T15:35:30;6.40;85.80
2623;DHT22;1321;48.690;9.022;2022-12-05T15:38:02;6.40;99.90
2623;DHT22;1321;48.690;9.022;2022-12-05T15:40:33;6.30;99.90
2623;DHT22;1321;48.690;9.022;2022-12-05T15:43:26;6.40;99.90
2623;DHT22;1321;48.690;9.022;2022-12-05T15:46:14;6.30;99.90
2623;DHT22;1321;48.690;9.022;2022-12-05T15:48:46;6.40;99.90
2623;DHT22;1321;48.690;9.022;2022-12-05T15:51:16;6.30;99.90
2623;DHT22;1321;48.690;9.022;2022-12-05T15:53:49;6.30;99.90
2623;DHT22;1321;48.690;9.022;2022-12-05T15:56:21;6.20;99.90
2623;DHT22;1321;48.690;9.022;2022-12-05T15:58:53;6.30;1.00
2623;DHT22;1321;48.690;9.022;2022-12-05T16:01:24;6.30;99.90
2623;DHT22;1321;48.690;9.022;2022-12-05T16:03:55;6.30;1.00
2623;DHT22;1321;48.690;9.022;2022-12-05T16:06:28;6.30;1.00
2623;DHT22;1321;48.690;9.022;2022-12-05T16:08:59;6.30;1.00
2623;DHT22;1321;48.690;9.022;2022-12-05T16:11:28;6.30;1.00
2623;DHT22;1321;48.690;9.022;2022-12-05T16:14:00;6.20;1.00
2623;DHT22;1321;48.690;9.022;2022-12-05T16:16:32;6.20;44.00
2623;DHT22;1321;48.690;9.022;2022-12-05T16:19:04;6.20;1.00
2623;DHT22;1321;48.690;9.022;2022-12-05T16:21:35;6.30;1.00
2623;DHT22;1321;48.690;9.022;2022-12-05T16:24:07;6.20;1.00
2623;DHT22;1321;48.690;9.022;2022-12-05T16:26:41;6.20;1.00
2623;DHT22;1321;48.690;9.022;2022-12-05T16:29:25;6.30;1.00
2623;DHT22;1321;48.690;9.022;2022-12-05T16:31:55;6.30;1.00
2623;DHT22;1321;48.690;9.022;2022-12-05T16:34:24;6.20;1.00
2623;DHT22;1321;48.690;9.022;2022-12-05T16:36:55;6.20;99.90
2623;DHT22;1321;48.690;9.022;2022-12-05T16:39:25;6.20;1.00
2623;DHT22;1321;48.690;9.022;2022-12-05T16:41:55;6.20;1.00
2623;DHT22;1321;48.690;9.022;2022-12-05T16:44:58;6.10;99.90
2623;DHT22;1321;48.690;9.022;2022-12-05T16:47:53;6.10;99.90
2623;DHT22;1321;48.690;9.022;2022-12-05T16:50:28;6.10;99.90
2623;DHT22;1321;48.690;9.022;2022-12-05T16:53:12;6.00;1.00
2623;DHT22;1321;48.690;9.022;2022-12-05T16:55:43;6.00;1.00
2623;DHT22;1321;48.690;9.022;2022-12-05T16:58:18;6.10;1.00
2623;DHT22;1321;48.690;9.022;2022-12-05T17:00:47;6.00;1.00
2623;DHT22;1321;48.690;9.022;2022-12-05T17:03:16;6.00;99.90
2623;DHT22;1321;48.690;9.022;2022-12-05T17:06:00;6.00;99.90
2623;DHT22;1321;48.690;9.022;2022-12-05T17:08:31;6.00;93.80
2623;DHT22;1321;48.690;9.022;2022-12-05T17:10:59;6.00;60.70
2623;DHT22;1321;48.690;9.022;2022-12-05T17:13:30;6.00;99.90
2623;DHT22;1321;48.690;9.022;2022-12-05T17:15:59;6.00;1.00
2623;DHT22;1321;48.690;9.022;2022-12-05T17:18:28;6.00;1.00
2623;DHT22;1321;48.690;9.022;2022-12-05T17:20:59;6.00;99.90
2623;DHT22;1321;48.690;9.022;2022-12-05T17:23:30;6.00;76.70
2623;DHT22;1321;48.690;9.022;2022-12-05T17:25:59;6.00;99.90
2623;DHT22;1321;48.690;9.022;2022-12-05T17:28:27;6.00;99.90